sensor_id;sensor_type;location;lat;lon;timestamp;pressure;altitude;pressure_sealevel;temperature;humidity
7105;BME280;3594;42.152;24.714;2023-04-15T00:00:41;-24127.78;;;11.13;nan
7105;BME280;3594;42.152;24.714;2023-04-15T00:03:07;-24128.91;;;11.17;nan
7105;BME280;3594;42.152;24.714;2023-04-15T00:05:33;-24120.72;;;10.87;nan
7105;BME280;3594;42.152;24.714;2023-04-15T00:07:59;-24120.88;;;10.88;nan
7105;BME280;3594;42.152;24.714;2023-04-15T00:10:26;-24131.59;;;11.26;nan
7105;BME280;3594;42.152;24.714;2023-04-15T00:12:51;-24122.00;;;10.92;nan
7105;BME280;3594;42.152;24.714;2023-04-15T00:15:17;-24117.91;;;10.77;nan
7105;BME280;3594;42.152;24.714;2023-04-15T00:17:43;-24107.88;;;10.41;nan
7105;BME280;3594;42.152;24.714;2023-04-15T00:20:09;-24119.75;;;10.84;nan
7105;BME280;3594;42.152;24.714;2023-04-15T00:22:34;-24122.41;;;10.93;nan
7105;BME280;3594;42.152;24.714;2023-04-15T00:25:00;-24114.53;;;10.65;nan
7105;BME280;3594;42.152;24.714;2023-04-15T00:27:26;-24124.97;;;11.02;nan
7105;BME280;3594;42.152;24.714;2023-04-15T00:29:51;-24125.94;;;11.06;nan
7105;BME280;3594;42.152;24.714;2023-04-15T00:32:17;-24128.75;;;11.16;nan
7105;BME280;3594;42.152;24.714;2023-04-15T00:34:42;-24126.78;;;11.09;nan
7105;BME280;3594;42.152;24.714;2023-04-15T00:37:08;-24113.81;;;10.62;nan
7105;BME280;3594;42.152;24.714;2023-04-15T00:39:34;-24124.25;;;11.00;nan
7105;BME280;3594;42.152;24.714;2023-04-15T00:42:01;-24114.09;;;10.63;nan
7105;BME280;3594;42.152;24.714;2023-04-15T00:44:26;-24115.50;;;10.69;nan
7105;BME280;3594;42.152;24.714;2023-04-15T00:46:52;-24124.41;;;11.00;nan
7105;BME280;3594;42.152;24.714;2023-04-15T00:49:18;-24117.19;;;10.75;nan
7105;BME280;3594;42.152;24.714;2023-04-15T00:51:43;-24124.53;;;11.01;nan
7105;BME280;3594;42.152;24.714;2023-04-15T00:54:09;-24112.41;;;10.57;nan
7105;BME280;3594;42.152;24.714;2023-04-15T00:56:36;-24115.78;;;10.70;nan
7105;BME280;3594;42.152;24.714;2023-04-15T00:59:05;-24117.06;;;10.74;nan
7105;BME280;3594;42.152;24.714;2023-04-15T01:01:33;-24122.00;;;10.92;nan
7105;BME280;3594;42.152;24.714;2023-04-15T01:03:59;-24117.34;;;10.75;nan
7105;BME280;3594;42.152;24.714;2023-04-15T01:06:25;-24117.78;;;10.77;nan
7105;BME280;3594;42.152;24.714;2023-04-15T01:08:52;-24112.81;;;10.59;nan
7105;BME280;3594;42.152;24.714;2023-04-15T01:11:18;-24099.13;;;10.10;nan
7105;BME280;3594;42.152;24.714;2023-04-15T01:13:44;-24097.59;;;10.04;nan
7105;BME280;3594;42.152;24.714;2023-04-15T01:16:11;-24103.53;;;10.26;nan
7105;BME280;3594;42.152;24.714;2023-04-15T01:18:37;-24101.41;;;10.18;nan
7105;BME280;3594;42.152;24.714;2023-04-15T01:21:04;-24095.47;;;9.97;nan
7105;BME280;3594;42.152;24.714;2023-04-15T01:23:30;-24096.88;;;10.02;nan
7105;BME280;3594;42.152;24.714;2023-04-15T01:25:58;-24095.75;;;9.98;nan
7105;BME280;3594;42.152;24.714;2023-04-15T01:28:24;-24096.16;;;9.99;nan
7105;BME280;3594;42.152;24.714;2023-04-15T01:30:49;-24089.38;;;9.75;nan
7105;BME280;3594;42.152;24.714;2023-04-15T01:33:15;-24091.22;;;9.82;nan
7105;BME280;3594;42.152;24.714;2023-04-15T01:35:41;-24097.72;;;10.05;nan
7105;BME280;3594;42.152;24.714;2023-04-15T01:38:09;-24093.78;;;9.91;nan
7105;BME280;3594;42.152;24.714;2023-04-15T01:40:35;-24095.47;;;9.97;nan
7105;BME280;3594;42.152;24.714;2023-04-15T01:43:01;-24090.38;;;9.79;nan
7105;BME280;3594;42.152;24.714;2023-04-15T01:45:27;-24083.47;;;9.54;nan
7105;BME280;3594;42.152;24.714;2023-04-15T01:47:52;-24088.25;;;9.71;nan
7105;BME280;3594;42.152;24.714;2023-04-15T01:50:18;-24087.28;;;9.67;nan
7105;BME280;3594;42.152;24.714;2023-04-15T01:52:45;-24087.84;;;9.69;nan
7105;BME280;3594;42.152;24.714;2023-04-15T01:55:11;-24090.66;;;9.80;nan
7105;BME280;3594;42.152;24.714;2023-04-15T01:57:36;-24081.19;;;9.46;nan
7105;BME280;3594;42.152;24.714;2023-04-15T02:00:02;-24075.41;;;9.25;nan
7105;BME280;3594;42.152;24.714;2023-04-15T02:02:27;-24073.13;;;9.17;nan
7105;BME280;3594;42.152;24.714;2023-04-15T02:04:53;-24079.63;;;9.40;nan
7105;BME280;3594;42.152;24.714;2023-04-15T02:07:18;-24079.06;;;9.38;nan
7105;BME280;3594;42.152;24.714;2023-04-15T02:09:44;-24083.75;;;9.55;nan
7105;BME280;3594;42.152;24.714;2023-04-15T02:12:10;-24074.84;;;9.23;nan
7105;BME280;3594;42.152;24.714;2023-04-15T02:14:35;-24072.16;;;9.13;nan
7105;BME280;3594;42.152;24.714;2023-04-15T02:17:01;-24085.00;;;9.59;nan
7105;BME280;3594;42.152;24.714;2023-04-15T02:19:32;-24075.69;;;9.26;nan
7105;BME280;3594;42.152;24.714;2023-04-15T02:21:58;-24078.78;;;9.37;nan
7105;BME280;3594;42.152;24.714;2023-04-15T02:24:24;-24086.13;;;9.63;nan
7105;BME280;3594;42.152;24.714;2023-04-15T02:26:49;-24079.63;;;9.40;nan
7105;BME280;3594;42.152;24.714;2023-04-15T02:29:15;-24088.69;;;9.72;nan
7105;BME280;3594;42.152;24.714;2023-04-15T02:31:40;-24082.31;;;9.50;nan
7105;BME280;3594;42.152;24.714;2023-04-15T02:34:06;-24078.38;;;9.36;nan
7105;BME280;3594;42.152;24.714;2023-04-15T02:36:32;-24071.03;;;9.09;nan
7105;BME280;3594;42.152;24.714;2023-04-15T02:38:59;-24057.56;;;8.61;nan
7105;BME280;3594;42.152;24.714;2023-04-15T02:41:24;-24059.84;;;8.69;nan
7105;BME280;3594;42.152;24.714;2023-04-15T02:43:51;-24074.25;;;9.21;nan
7105;BME280;3594;42.152;24.714;2023-04-15T02:46:17;-24066.91;;;8.95;nan
7105;BME280;3594;42.152;24.714;2023-04-15T02:48:42;-24076.81;;;9.30;nan
7105;BME280;3594;42.152;24.714;2023-04-15T02:51:16;-24065.22;;;8.88;nan
7105;BME280;3594;42.152;24.714;2023-04-15T02:53:44;-24076.25;;;9.28;nan
7105;BME280;3594;42.152;24.714;2023-04-15T02:56:11;-24082.59;;;9.51;nan
7105;BME280;3594;42.152;24.714;2023-04-15T02:58:38;-24075.25;;;9.24;nan
7105;BME280;3594;42.152;24.714;2023-04-15T03:01:03;-24073.84;;;9.19;nan
7105;BME280;3594;42.152;24.714;2023-04-15T03:03:29;-24068.91;;;9.02;nan
7105;BME280;3594;42.152;24.714;2023-04-15T03:05:54;-24068.91;;;9.02;nan
7105;BME280;3594;42.152;24.714;2023-04-15T03:08:20;-24052.34;;;8.42;nan
7105;BME280;3594;42.152;24.714;2023-04-15T03:10:46;-24042.84;;;8.09;nan
7105;BME280;3594;42.152;24.714;2023-04-15T03:13:12;-24044.41;;;8.14;nan
7105;BME280;3594;42.152;24.714;2023-04-15T03:15:37;-24050.38;;;8.35;nan
7105;BME280;3594;42.152;24.714;2023-04-15T03:18:03;-24054.31;;;8.50;nan
7105;BME280;3594;42.152;24.714;2023-04-15T03:20:28;-24047.38;;;8.25;nan
7105;BME280;3594;42.152;24.714;2023-04-15T03:22:53;-24049.22;;;8.31;nan
7105;BME280;3594;42.152;24.714;2023-04-15T03:25:19;-24061.41;;;8.75;nan
7105;BME280;3594;42.152;24.714;2023-04-15T03:27:44;-24050.06;;;8.34;nan
7105;BME280;3594;42.152;24.714;2023-04-15T03:30:10;-24054.75;;;8.51;nan
7105;BME280;3594;42.152;24.714;2023-04-15T03:32:36;-24061.25;;;8.74;nan
7105;BME280;3594;42.152;24.714;2023-04-15T03:35:02;-24052.34;;;8.42;nan
7105;BME280;3594;42.152;24.714;2023-04-15T03:37:27;-24061.41;;;8.75;nan
7105;BME280;3594;42.152;24.714;2023-04-15T03:39:53;-24057.56;;;8.61;nan
7105;BME280;3594;42.152;24.714;2023-04-15T03:42:18;-24048.94;;;8.30;nan
7105;BME280;3594;42.152;24.714;2023-04-15T03:44:43;-24052.78;;;8.44;nan
7105;BME280;3594;42.152;24.714;2023-04-15T03:47:09;-24040.03;;;7.98;nan
7105;BME280;3594;42.152;24.714;2023-04-15T03:49:35;-24034.06;;;7.77;nan
7105;BME280;3594;42.152;24.714;2023-04-15T03:52:01;-24029.25;;;7.60;nan
7105;BME280;3594;42.152;24.714;2023-04-15T03:54:26;-24042.00;;;8.06;nan
7105;BME280;3594;42.152;24.714;2023-04-15T03:56:52;-24038.31;;;7.92;nan
7105;BME280;3594;42.152;24.714;2023-04-15T03:59:17;-24050.66;;;8.36;nan
7105;BME280;3594;42.152;24.714;2023-04-15T04:01:42;-24055.16;;;8.53;nan
7105;BME280;3594;42.152;24.714;2023-04-15T04:04:08;-24052.47;;;8.43;nan
7105;BME280;3594;42.152;24.714;2023-04-15T04:06:33;-24052.47;;;8.43;nan
7105;BME280;3594;42.152;24.714;2023-04-15T04:08:58;-24054.47;;;8.50;nan
7105;BME280;3594;42.152;24.714;2023-04-15T04:11:25;-24057.72;;;8.62;nan
7105;BME280;3594;42.152;24.714;2023-04-15T04:13:52;-24059.28;;;8.67;nan
7105;BME280;3594;42.152;24.714;2023-04-15T04:16:17;-24057.16;;;8.60;nan
7105;BME280;3594;42.152;24.714;2023-04-15T04:18:43;-24051.78;;;8.40;nan
7105;BME280;3594;42.152;24.714;2023-04-15T04:21:08;-24047.25;;;8.24;nan
7105;BME280;3594;42.152;24.714;2023-04-15T04:23:34;-24044.69;;;8.15;nan
7105;BME280;3594;42.152;24.714;2023-04-15T04:25:59;-24050.06;;;8.34;nan
7105;BME280;3594;42.152;24.714;2023-04-15T04:28:25;-24048.81;;;8.30;nan
7105;BME280;3594;42.152;24.714;2023-04-15T04:30:51;-24057.72;;;8.62;nan
7105;BME280;3594;42.152;24.714;2023-04-15T04:33:16;-24084.44;;;9.57;nan
7105;BME280;3594;42.152;24.714;2023-04-15T04:35:42;-24098.28;;;10.07;nan
7105;BME280;3594;42.152;24.714;2023-04-15T04:38:07;-24116.34;;;10.72;nan
7105;BME280;3594;42.152;24.714;2023-04-15T04:40:33;-24114.53;;;10.65;nan
7105;BME280;3594;42.152;24.714;2023-04-15T04:42:58;-24115.22;;;10.68;nan
7105;BME280;3594;42.152;24.714;2023-04-15T04:45:24;-24112.13;;;10.56;nan
7105;BME280;3594;42.152;24.714;2023-04-15T04:47:49;-24105.06;;;10.31;nan
7105;BME280;3594;42.152;24.714;2023-04-15T04:50:15;-24094.34;;;9.93;nan
7105;BME280;3594;42.152;24.714;2023-04-15T04:52:41;-24090.25;;;9.78;nan
7105;BME280;3594;42.152;24.714;2023-04-15T04:55:06;-24083.16;;;9.53;nan
7105;BME280;3594;42.152;24.714;2023-04-15T04:57:33;-24092.50;;;9.86;nan
7105;BME280;3594;42.152;24.714;2023-04-15T05:00:00;-24101.97;;;10.20;nan
7105;BME280;3594;42.152;24.714;2023-04-15T05:02:26;-24092.06;;;9.85;nan
7105;BME280;3594;42.152;24.714;2023-04-15T05:04:51;-24108.31;;;10.43;nan
7105;BME280;3594;42.152;24.714;2023-04-15T05:07:18;-24103.78;;;10.27;nan
7105;BME280;3594;42.152;24.714;2023-04-15T05:09:45;-24118.03;;;10.78;nan
7105;BME280;3594;42.152;24.714;2023-04-15T05:12:10;-24104.50;;;10.29;nan
7105;BME280;3594;42.152;24.714;2023-04-15T05:14:40;-24113.81;;;10.62;nan
7105;BME280;3594;42.152;24.714;2023-04-15T05:17:06;-24121.72;;;10.91;nan
7105;BME280;3594;42.152;24.714;2023-04-15T05:19:31;-24133.69;;;11.34;nan
7105;BME280;3594;42.152;24.714;2023-04-15T05:21:57;-24125.09;;;11.03;nan
7105;BME280;3594;42.152;24.714;2023-04-15T05:24:22;-24128.19;;;11.14;nan
7105;BME280;3594;42.152;24.714;2023-04-15T05:26:47;-24127.63;;;11.12;nan
7105;BME280;3594;42.152;24.714;2023-04-15T05:29:13;-24130.19;;;11.21;nan
7105;BME280;3594;42.152;24.714;2023-04-15T05:31:38;-24126.94;;;11.10;nan
7105;BME280;3594;42.152;24.714;2023-04-15T05:34:03;-24130.88;;;11.24;nan
7105;BME280;3594;42.152;24.714;2023-04-15T05:36:29;-24133.41;;;11.33;nan
7105;BME280;3594;42.152;24.714;2023-04-15T05:38:55;-24137.22;;;11.46;nan
7105;BME280;3594;42.152;24.714;2023-04-15T05:41:20;-24145.25;;;11.75;nan
7105;BME280;3594;42.152;24.714;2023-04-15T05:43:46;-24138.34;;;11.50;nan
7105;BME280;3594;42.152;24.714;2023-04-15T05:46:11;-24150.75;;;11.95;nan
7105;BME280;3594;42.152;24.714;2023-04-15T05:48:37;-24143.97;;;11.71;nan
7105;BME280;3594;42.152;24.714;2023-04-15T05:51:02;-24156.66;;;12.16;nan
7105;BME280;3594;42.152;24.714;2023-04-15T05:53:28;-24154.41;;;12.08;nan
7105;BME280;3594;42.152;24.714;2023-04-15T05:55:53;-24166.09;;;12.50;nan
7105;BME280;3594;42.152;24.714;2023-04-15T05:58:19;-24169.03;;;12.61;nan
7105;BME280;3594;42.152;24.714;2023-04-15T06:00:44;-24180.44;;;13.02;nan
7105;BME280;3594;42.152;24.714;2023-04-15T06:03:10;-24175.38;;;12.83;nan
7105;BME280;3594;42.152;24.714;2023-04-15T06:05:36;-24176.63;;;12.88;nan
7105;BME280;3594;42.152;24.714;2023-04-15T06:08:01;-24184.78;;;13.17;nan
7105;BME280;3594;42.152;24.714;2023-04-15T06:10:26;-24182.41;;;13.09;nan
7105;BME280;3594;42.152;24.714;2023-04-15T06:12:52;-24179.59;;;12.99;nan
7105;BME280;3594;42.152;24.714;2023-04-15T06:15:17;-24176.06;;;12.86;nan
7105;BME280;3594;42.152;24.714;2023-04-15T06:17:43;-24180.16;;;13.01;nan
7105;BME280;3594;42.152;24.714;2023-04-15T06:20:09;-24191.13;;;13.40;nan
7105;BME280;3594;42.152;24.714;2023-04-15T06:22:36;-24195.59;;;13.56;nan
7105;BME280;3594;42.152;24.714;2023-04-15T06:25:01;-24205.84;;;13.93;nan
7105;BME280;3594;42.152;24.714;2023-04-15T06:27:27;-24211.19;;;14.12;nan
7105;BME280;3594;42.152;24.714;2023-04-15T06:29:52;-24213.44;;;14.21;nan
7105;BME280;3594;42.152;24.714;2023-04-15T06:32:18;-24216.09;;;14.30;nan
7105;BME280;3594;42.152;24.714;2023-04-15T06:34:43;-24225.50;;;14.64;nan
7105;BME280;3594;42.152;24.714;2023-04-15T06:37:09;-24222.41;;;14.53;nan
7105;BME280;3594;42.152;24.714;2023-04-15T06:39:39;-24225.78;;;14.65;nan
7105;BME280;3594;42.152;24.714;2023-04-15T06:42:05;-24235.44;;;15.00;nan
7105;BME280;3594;42.152;24.714;2023-04-15T06:44:30;-24228.44;;;14.75;nan
7105;BME280;3594;42.152;24.714;2023-04-15T06:46:56;-24240.78;;;15.19;nan
7105;BME280;3594;42.152;24.714;2023-04-15T06:49:21;-24233.34;;;14.92;nan
7105;BME280;3594;42.152;24.714;2023-04-15T06:51:46;-24228.03;;;14.73;nan
7105;BME280;3594;42.152;24.714;2023-04-15T06:54:12;-24232.50;;;14.89;nan
7105;BME280;3594;42.152;24.714;2023-04-15T06:56:38;-24225.78;;;14.65;nan
7105;BME280;3594;42.152;24.714;2023-04-15T06:59:03;-24228.84;;;14.76;nan
7105;BME280;3594;42.152;24.714;2023-04-15T07:01:28;-24231.25;;;14.85;nan
7105;BME280;3594;42.152;24.714;2023-04-15T07:03:54;-24235.31;;;14.99;nan
7105;BME280;3594;42.152;24.714;2023-04-15T07:06:20;-24230.41;;;14.82;nan
7105;BME280;3594;42.152;24.714;2023-04-15T07:08:46;-24223.53;;;14.57;nan
7105;BME280;3594;42.152;24.714;2023-04-15T07:11:11;-24234.31;;;14.96;nan
7105;BME280;3594;42.152;24.714;2023-04-15T07:13:37;-24242.03;;;15.24;nan
7105;BME280;3594;42.152;24.714;2023-04-15T07:16:03;-24242.03;;;15.24;nan
7105;BME280;3594;42.152;24.714;2023-04-15T07:18:29;-24251.41;;;15.58;nan
7105;BME280;3594;42.152;24.714;2023-04-15T07:20:54;-24251.97;;;15.60;nan
7105;BME280;3594;42.152;24.714;2023-04-15T07:23:20;-24242.88;;;15.27;nan
7105;BME280;3594;42.152;24.714;2023-04-15T07:25:45;-24257.44;;;15.79;nan
7105;BME280;3594;42.152;24.714;2023-04-15T07:28:11;-24262.47;;;15.98;nan
7105;BME280;3594;42.152;24.714;2023-04-15T07:30:37;-24257.44;;;15.79;nan
7105;BME280;3594;42.152;24.714;2023-04-15T07:33:02;-24272.13;;;16.32;nan
7105;BME280;3594;42.152;24.714;2023-04-15T07:35:28;-24275.63;;;16.45;nan
7105;BME280;3594;42.152;24.714;2023-04-15T07:37:53;-24280.66;;;16.63;nan
7105;BME280;3594;42.152;24.714;2023-04-15T07:40:19;-24286.38;;;16.84;nan
7105;BME280;3594;42.152;24.714;2023-04-15T07:42:44;-24270.59;;;16.27;nan
7105;BME280;3594;42.152;24.714;2023-04-15T07:45:10;-24277.44;;;16.52;nan
7105;BME280;3594;42.152;24.714;2023-04-15T07:47:37;-24276.88;;;16.50;nan
7105;BME280;3594;42.152;24.714;2023-04-15T07:50:02;-24286.66;;;16.85;nan
7105;BME280;3594;42.152;24.714;2023-04-15T07:52:27;-24290.28;;;16.98;nan
7105;BME280;3594;42.152;24.714;2023-04-15T07:54:53;-24291.13;;;17.01;nan
7105;BME280;3594;42.152;24.714;2023-04-15T07:57:18;-24285.69;;;16.82;nan
7105;BME280;3594;42.152;24.714;2023-04-15T07:59:44;-24298.94;;;17.30;nan
7105;BME280;3594;42.152;24.714;2023-04-15T08:02:10;-24298.38;;;17.28;nan
7105;BME280;3594;42.152;24.714;2023-04-15T08:04:35;-24295.03;;;17.15;nan
7105;BME280;3594;42.152;24.714;2023-04-15T08:07:02;-24301.59;;;17.39;nan
7105;BME280;3594;42.152;24.714;2023-04-15T08:09:28;-24300.91;;;17.37;nan
7105;BME280;3594;42.152;24.714;2023-04-15T08:11:53;-24295.16;;;17.16;nan
7105;BME280;3594;42.152;24.714;2023-04-15T08:14:19;-24305.22;;;17.52;nan
7105;BME280;3594;42.152;24.714;2023-04-15T08:16:44;-24306.91;;;17.58;nan
7105;BME280;3594;42.152;24.714;2023-04-15T08:19:10;-24312.75;;;17.80;nan
7105;BME280;3594;42.152;24.714;2023-04-15T08:21:36;-24301.31;;;17.38;nan
7105;BME280;3594;42.152;24.714;2023-04-15T08:24:01;-24304.94;;;17.51;nan
7105;BME280;3594;42.152;24.714;2023-04-15T08:26:27;-24306.47;;;17.57;nan
7105;BME280;3594;42.152;24.714;2023-04-15T08:28:52;-24312.34;;;17.78;nan
7105;BME280;3594;42.152;24.714;2023-04-15T08:31:18;-24315.97;;;17.91;nan
7105;BME280;3594;42.152;24.714;2023-04-15T08:33:44;-24322.53;;;18.15;nan
7105;BME280;3594;42.152;24.714;2023-04-15T08:36:10;-24305.78;;;17.54;nan
7105;BME280;3594;42.152;24.714;2023-04-15T08:38:36;-24300.75;;;17.36;nan
7105;BME280;3594;42.152;24.714;2023-04-15T08:41:04;-24302.44;;;17.42;nan
7105;BME280;3594;42.152;24.714;2023-04-15T08:43:37;-24296.84;;;17.22;nan
7105;BME280;3594;42.152;24.714;2023-04-15T08:46:08;-24296.72;;;17.21;nan
7105;BME280;3594;42.152;24.714;2023-04-15T08:48:35;-24301.72;;;17.40;nan
7105;BME280;3594;42.152;24.714;2023-04-15T08:51:03;-24308.16;;;17.63;nan
7105;BME280;3594;42.152;24.714;2023-04-15T08:53:29;-24326.97;;;18.31;nan
7105;BME280;3594;42.152;24.714;2023-04-15T08:55:56;-24334.38;;;18.58;nan
7105;BME280;3594;42.152;24.714;2023-04-15T08:58:22;-24337.00;;;18.68;nan
7105;BME280;3594;42.152;24.714;2023-04-15T09:00:48;-24344.66;;;18.95;nan
7105;BME280;3594;42.152;24.714;2023-04-15T09:03:15;-24340.78;;;18.81;nan
7105;BME280;3594;42.152;24.714;2023-04-15T09:05:41;-24358.84;;;19.47;nan
7105;BME280;3594;42.152;24.714;2023-04-15T09:08:07;-24372.63;;;19.97;nan
7105;BME280;3594;42.152;24.714;2023-04-15T09:10:33;-24364.16;;;19.66;nan
7105;BME280;3594;42.152;24.714;2023-04-15T09:12:58;-24360.25;;;19.52;nan
7105;BME280;3594;42.152;24.714;2023-04-15T09:15:24;-24363.16;;;19.63;nan
7105;BME280;3594;42.152;24.714;2023-04-15T09:17:52;-24372.06;;;19.95;nan
7105;BME280;3594;42.152;24.714;2023-04-15T09:20:17;-24376.78;;;20.12;nan
7105;BME280;3594;42.152;24.714;2023-04-15T09:22:44;-24379.44;;;20.22;nan
7105;BME280;3594;42.152;24.714;2023-04-15T09:30:14;-24386.53;;;20.48;nan
7105;BME280;3594;42.152;24.714;2023-04-15T09:32:51;-24394.00;;;20.75;nan
7105;BME280;3594;42.152;24.714;2023-04-15T09:35:17;-24394.84;;;20.78;nan
7105;BME280;3594;42.152;24.714;2023-04-15T09:37:43;-24375.00;;;20.06;nan
7105;BME280;3594;42.152;24.714;2023-04-15T09:40:09;-24380.81;;;20.27;nan
7105;BME280;3594;42.152;24.714;2023-04-15T09:42:35;-24375.13;;;20.06;nan
7105;BME280;3594;42.152;24.714;2023-04-15T09:45:10;-24382.34;;;20.33;nan
7105;BME280;3594;42.152;24.714;2023-04-15T09:47:36;-24385.13;;;20.43;nan
7105;BME280;3594;42.152;24.714;2023-04-15T09:50:02;-24393.03;;;20.71;nan
7105;BME280;3594;42.152;24.714;2023-04-15T09:52:28;-24380.13;;;20.24;nan
7105;BME280;3594;42.152;24.714;2023-04-15T09:54:56;-24388.47;;;20.55;nan
7105;BME280;3594;42.152;24.714;2023-04-15T09:57:22;-24388.03;;;20.53;nan
7105;BME280;3594;42.152;24.714;2023-04-15T09:59:49;-24402.06;;;21.04;nan
7105;BME280;3594;42.152;24.714;2023-04-15T10:02:14;-24393.19;;;20.72;nan
7105;BME280;3594;42.152;24.714;2023-04-15T10:04:40;-24382.34;;;20.33;nan
7105;BME280;3594;42.152;24.714;2023-04-15T10:07:08;-24383.31;;;20.36;nan
7105;BME280;3594;42.152;24.714;2023-04-15T10:09:35;-24385.53;;;20.44;nan
7105;BME280;3594;42.152;24.714;2023-04-15T10:12:02;-24369.00;;;19.84;nan
7105;BME280;3594;42.152;24.714;2023-04-15T10:14:32;-24377.47;;;20.15;nan
7105;BME280;3594;42.152;24.714;2023-04-15T10:17:00;-24376.50;;;20.11;nan
7105;BME280;3594;42.152;24.714;2023-04-15T10:19:26;-24354.97;;;19.33;nan
7105;BME280;3594;42.152;24.714;2023-04-15T10:21:52;-24354.69;;;19.32;nan
7105;BME280;3594;42.152;24.714;2023-04-15T10:24:19;-24363.31;;;19.63;nan
7105;BME280;3594;42.152;24.714;2023-04-15T10:26:45;-24363.88;;;19.65;nan
7105;BME280;3594;42.152;24.714;2023-04-15T10:29:11;-24384.72;;;20.41;nan
7105;BME280;3594;42.152;24.714;2023-04-15T10:31:37;-24395.41;;;20.80;nan
7105;BME280;3594;42.152;24.714;2023-04-15T10:34:04;-24393.72;;;20.74;nan
7105;BME280;3594;42.152;24.714;2023-04-15T10:36:31;-24389.28;;;20.58;nan
7105;BME280;3594;42.152;24.714;2023-04-15T10:38:57;-24403.03;;;21.08;nan
7105;BME280;3594;42.152;24.714;2023-04-15T10:41:27;-24415.66;;;21.54;nan
7105;BME280;3594;42.152;24.714;2023-04-15T10:44:03;-24419.78;;;21.69;nan
7105;BME280;3594;42.152;24.714;2023-04-15T10:49:11;-24417.59;;;21.61;nan
7105;BME280;3594;42.152;24.714;2023-04-15T10:51:41;-24400.81;;;21.00;nan
7105;BME280;3594;42.152;24.714;2023-04-15T10:54:31;-24404.84;;;21.14;nan
7105;BME280;3594;42.152;24.714;2023-04-15T10:59:29;-24413.97;;;21.48;nan
7105;BME280;3594;42.152;24.714;2023-04-15T11:01:56;-24402.59;;;21.06;nan
7105;BME280;3594;42.152;24.714;2023-04-15T11:12:39;-24359.00;;;19.48;nan
7105;BME280;3594;42.152;24.714;2023-04-15T11:15:31;-24361.78;;;19.58;nan
7105;BME280;3594;42.152;24.714;2023-04-15T11:18:20;-24366.66;;;19.75;nan
7105;BME280;3594;42.152;24.714;2023-04-15T11:20:49;-24369.16;;;19.84;nan
7105;BME280;3594;42.152;24.714;2023-04-15T11:23:17;-24370.13;;;19.88;nan
7105;BME280;3594;42.152;24.714;2023-04-15T11:25:43;-24371.22;;;19.92;nan
7105;BME280;3594;42.152;24.714;2023-04-15T11:28:10;-24374.56;;;20.04;nan
7105;BME280;3594;42.152;24.714;2023-04-15T11:30:36;-24381.22;;;20.28;nan
7105;BME280;3594;42.152;24.714;2023-04-15T11:33:06;-24379.28;;;20.21;nan
7105;BME280;3594;42.152;24.714;2023-04-15T11:35:33;-24374.84;;;20.05;nan
7105;BME280;3594;42.152;24.714;2023-04-15T11:38:02;-24375.97;;;20.09;nan
7105;BME280;3594;42.152;24.714;2023-04-15T11:40:29;-24374.72;;;20.05;nan
7105;BME280;3594;42.152;24.714;2023-04-15T11:45:37;-24385.13;;;20.43;nan
7105;BME280;3594;42.152;24.714;2023-04-15T11:48:10;-24380.97;;;20.27;nan
7105;BME280;3594;42.152;24.714;2023-04-15T11:50:37;-24378.75;;;20.19;nan
7105;BME280;3594;42.152;24.714;2023-04-15T11:53:06;-24372.06;;;19.95;nan
7105;BME280;3594;42.152;24.714;2023-04-15T11:55:44;-24357.34;;;19.41;nan
7105;BME280;3594;42.152;24.714;2023-04-15T11:58:28;-24365.13;;;19.70;nan
7105;BME280;3594;42.152;24.714;2023-04-15T12:00:56;-24375.25;;;20.07;nan
7105;BME280;3594;42.152;24.714;2023-04-15T12:03:27;-24364.28;;;19.67;nan
7105;BME280;3594;42.152;24.714;2023-04-15T12:08:51;-24377.06;;;20.13;nan
7105;BME280;3594;42.152;24.714;2023-04-15T12:11:26;-24368.59;;;19.82;nan
7105;BME280;3594;42.152;24.714;2023-04-15T12:16:22;-24368.88;;;19.83;nan
7105;BME280;3594;42.152;24.714;2023-04-15T12:18:52;-24377.22;;;20.14;nan
7105;BME280;3594;42.152;24.714;2023-04-15T12:21:21;-24372.75;;;19.98;nan
7105;BME280;3594;42.152;24.714;2023-04-15T12:23:57;-24368.03;;;19.80;nan
7105;BME280;3594;42.152;24.714;2023-04-15T12:26:51;-24370.81;;;19.91;nan
7105;BME280;3594;42.152;24.714;2023-04-15T12:29:17;-24362.47;;;19.60;nan
7105;BME280;3594;42.152;24.714;2023-04-15T12:31:47;-24359.13;;;19.48;nan
7105;BME280;3594;42.152;24.714;2023-04-15T12:34:14;-24373.59;;;20.01;nan
7105;BME280;3594;42.152;24.714;2023-04-15T12:36:40;-24370.81;;;19.91;nan
7105;BME280;3594;42.152;24.714;2023-04-15T12:39:05;-24358.84;;;19.47;nan
7105;BME280;3594;42.152;24.714;2023-04-15T12:41:31;-24364.97;;;19.69;nan
7105;BME280;3594;42.152;24.714;2023-04-15T12:43:57;-24360.94;;;19.55;nan
7105;BME280;3594;42.152;24.714;2023-04-15T12:46:23;-24382.22;;;20.32;nan
7105;BME280;3594;42.152;24.714;2023-04-15T12:48:49;-24380.69;;;20.26;nan
7105;BME280;3594;42.152;24.714;2023-04-15T12:51:16;-24369.00;;;19.84;nan
7105;BME280;3594;42.152;24.714;2023-04-15T12:53:41;-24383.47;;;20.37;nan
7105;BME280;3594;42.152;24.714;2023-04-15T12:56:07;-24391.66;;;20.66;nan
7105;BME280;3594;42.152;24.714;2023-04-15T12:58:32;-24401.09;;;21.01;nan
7105;BME280;3594;42.152;24.714;2023-04-15T13:00:58;-24415.22;;;21.52;nan
7105;BME280;3594;42.152;24.714;2023-04-15T13:03:23;-24421.19;;;21.74;nan
7105;BME280;3594;42.152;24.714;2023-04-15T13:05:49;-24415.22;;;21.52;nan
7105;BME280;3594;42.152;24.714;2023-04-15T13:08:14;-24409.53;;;21.32;nan
7105;BME280;3594;42.152;24.714;2023-04-15T13:10:40;-24403.03;;;21.08;nan
7105;BME280;3594;42.152;24.714;2023-04-15T13:13:06;-24391.78;;;20.67;nan
7105;BME280;3594;42.152;24.714;2023-04-15T13:15:32;-24388.03;;;20.53;nan
7105;BME280;3594;42.152;24.714;2023-04-15T13:17:57;-24411.63;;;21.39;nan
7105;BME280;3594;42.152;24.714;2023-04-15T13:20:24;-24411.63;;;21.39;nan
7105;BME280;3594;42.152;24.714;2023-04-15T13:22:51;-24415.78;;;21.54;nan
7105;BME280;3594;42.152;24.714;2023-04-15T13:25:16;-24405.53;;;21.17;nan
7105;BME280;3594;42.152;24.714;2023-04-15T13:27:42;-24397.91;;;20.89;nan
7105;BME280;3594;42.152;24.714;2023-04-15T13:30:08;-24403.16;;;21.08;nan
7105;BME280;3594;42.152;24.714;2023-04-15T13:32:33;-24393.31;;;20.72;nan
7105;BME280;3594;42.152;24.714;2023-04-15T13:34:59;-24401.34;;;21.02;nan
7105;BME280;3594;42.152;24.714;2023-04-15T13:37:27;-24406.34;;;21.20;nan
7105;BME280;3594;42.152;24.714;2023-04-15T13:39:54;-24410.66;;;21.36;nan
7105;BME280;3594;42.152;24.714;2023-04-15T13:42:20;-24410.78;;;21.36;nan
7105;BME280;3594;42.152;24.714;2023-04-15T13:44:46;-24406.50;;;21.21;nan
7105;BME280;3594;42.152;24.714;2023-04-15T13:47:11;-24407.19;;;21.23;nan